マイアミ の空港の天気 - METARとTAF

マイアミ国際空港 ( KMIA / MIA ) - アメリカ フロリダ州マイアミ
飛行場実況気象(Metar)
観測時間07/16 01:53 EDT (07/16 05:53 UTC)
風向・風速南 2m/s
視程10km以上
天気現象
少しの雲 雲底高度 1070m
全天の4割程度の雲 雲底高度 7620m
気温27.8℃
湿度77%
気圧1018.1hPa
METARKMIA 160553Z 17004KT 10SM FEW035 SCT250 28/23 A3007 RMK AO2 SLP181 T02780233 10294 20272 51001 $
過去の天気等 Google飛行場航空写真 Wunderground天気予報

過去48時間のMETAR

飛行場予報(TAF)
発表時間: 7/16 01:41 EDT (7/16 05:41 UTC)
予報対象時間: 16日2時 EDT ~ 17日8時 EDT
風向・風速不定 2m/s
視程10km以上
少しの雲 雲底高度 760m
全天の4割程度の雲 雲底高度 7620m
16日13時 EDT から
風向・風速南南東 5m/s
視程10km以上
天気現象周辺で雷
全天の4割程度の積乱雲 雲底高度 910m
全天の8割程度の雲 雲底高度 1520m
16日20時 EDT から
風向・風速不定 2m/s
視程10km以上
全天の4割程度の雲 雲底高度 910m
全天の4割程度の雲 雲底高度 3050m
KMIA 160541Z 1606/1712 VRB03KT P6SM FEW025 SCT250
FM161700 15010KT P6SM VCTS SCT030CB BKN050
FM170000 VRB04KT P6SM SCT030 SCT100